Time;durP1;ratioP1;P1;durP2;ratioP2;P2;SDS_P1;SDS_P2;PMS_P1;PMS_P2;Temp;Humidity;BMP_temperature;BMP_pressure;BME280_temperature;BME280_humidity;BME280_pressure;Samples;Min_cycle;Max_cycle;Signal;HPM_P1;HPM_P2
2023/05/09 00:01:59;;;;;;;10.30;9.30;;;13.20;99.90;;;;;;479953;248;28006;-81
2023/05/09 00:04:00;;;;;;;12.93;11.60;;;13.20;99.90;;;;;;478982;246;28120;-81
2023/05/09 00:06:01;;;;;;;11.33;10.20;;;13.20;99.90;;;;;;479603;247;29072;-80
2023/05/09 00:08:02;;;;;;;12.07;10.87;;;13.20;99.90;;;;;;478784;247;28238;-81
2023/05/09 00:10:04;;;;;;;11.87;10.67;;;13.20;99.90;;;;;;479689;248;28164;-81
2023/05/09 00:12:06;;;;;;;11.90;10.70;;;13.10;99.90;;;;;;478856;246;28352;-80
2023/05/09 00:14:07;;;;;;;12.57;11.27;;;13.00;99.90;;;;;;479598;248;28007;-80
2023/05/09 00:16:09;;;;;;;12.50;11.20;;;;;;;;;;478737;246;28642;-81
2023/05/09 00:18:11;;;;;;;15.70;10.23;;;13.10;99.90;;;;;;479593;247;26322;-81
2023/05/09 00:20:13;;;;;;;11.93;10.60;;;;;;;;;;478792;245;28156;-80
2023/05/09 00:22:14;;;;;;;11.73;10.30;;;13.00;99.90;;;;;;479745;248;26481;-81
2023/05/09 00:24:16;;;;;;;17.17;10.20;;;13.10;99.90;;;;;;478759;246;28149;-81
2023/05/09 00:26:17;;;;;;;11.27;10.10;;;13.10;99.90;;;;;;479497;248;28042;-79
2023/05/09 00:28:18;;;;;;;12.20;10.73;;;13.00;99.90;;;;;;478434;247;28212;-81
2023/05/09 00:30:19;;;;;;;12.13;10.93;;;13.00;99.90;;;;;;479240;248;28169;-81
2023/05/09 00:32:24;;;;;;;12.93;11.10;;;13.00;99.90;;;;;;478327;247;28122;-80
2023/05/09 00:34:24;;;;;;;10.80;9.70;;;12.90;99.90;;;;;;479019;248;28051;-81
2023/05/09 00:36:25;;;;;;;10.80;9.80;;;12.90;99.90;;;;;;478342;245;28653;-79
2023/05/09 00:38:27;;;;;;;10.93;9.33;;;12.90;99.90;;;;;;479321;247;28619;-82
2023/05/09 00:40:31;;;;;;;11.27;10.17;;;;;;;;;;478566;246;28186;-80
2023/05/09 00:42:32;;;;;;;11.13;9.57;;;12.90;99.90;;;;;;479425;248;26837;-80
2023/05/09 00:44:38;;;;;;;14.13;10.90;;;12.90;99.90;;;;;;478604;245;28236;-80
2023/05/09 00:46:39;;;;;;;11.03;9.93;;;12.90;99.90;;;;;;479180;247;28049;-80
2023/05/09 00:48:51;;;;;;;10.67;9.57;;;;;;;;;;478801;245;29084;-82
2023/05/09 00:50:51;;;;;;;11.33;9.70;;;12.80;99.90;;;;;;479329;248;27071;-82
2023/05/09 00:52:52;;;;;;;16.20;10.77;;;12.90;99.90;;;;;;478543;247;28486;-80
2023/05/09 00:54:53;;;;;;;10.17;9.17;;;12.80;99.90;;;;;;479545;248;28086;-80
2023/05/09 00:56:54;;;;;;;10.03;9.03;;;12.70;99.90;;;;;;478501;246;28078;-79
2023/05/09 00:58:56;;;;;;;11.27;10.13;;;12.70;99.90;;;;;;479464;248;27900;-80
2023/05/09 01:01:00;;;;;;;10.87;9.33;;;;;;;;;;478621;245;28337;-80
2023/05/09 01:02:59;;;;;;;13.30;10.90;;;12.70;99.90;;;;;;479365;248;26578;-80
2023/05/09 01:05:01;;;;;;;11.87;10.67;;;12.70;99.90;;;;;;478683;245;28039;-80
2023/05/09 01:07:02;;;;;;;13.10;11.40;;;12.70;99.90;;;;;;479581;248;28345;-80
2023/05/09 01:09:04;;;;;;;11.30;10.20;;;;;;;;;;478742;245;28208;-80
2023/05/09 01:11:06;;;;;;;13.70;11.67;;;12.70;99.90;;;;;;479521;248;26607;-82
2023/05/09 01:13:08;;;;;;;13.67;10.97;;;12.70;99.90;;;;;;478736;246;28253;-83
2023/05/09 01:15:09;;;;;;;11.90;10.70;;;12.70;99.90;;;;;;479698;248;27885;-82
2023/05/09 01:17:11;;;;;;;11.30;9.70;;;12.70;99.90;;;;;;478848;247;28272;-82
2023/05/09 01:19:12;;;;;;;10.57;9.47;;;12.60;99.90;;;;;;479316;247;27943;-82
2023/05/09 01:21:13;;;;;;;10.80;9.70;;;12.60;99.90;;;;;;478912;245;28103;-82
2023/05/09 01:23:22;;;;;;;15.23;12.00;;;12.60;99.90;;;;;;479388;248;28614;-82
2023/05/09 01:25:23;;;;;;;12.30;10.70;;;12.70;99.90;;;;;;478526;246;27962;-83
2023/05/09 01:27:25;;;;;;;12.90;10.50;;;12.60;99.90;;;;;;479439;248;28466;-81
2023/05/09 01:29:26;;;;;;;12.37;11.00;;;12.60;99.90;;;;;;478510;247;28745;-83
2023/05/09 01:31:27;;;;;;;12.50;10.47;;;12.50;99.90;;;;;;479340;248;28360;-82
2023/05/09 01:33:30;;;;;;;13.37;10.57;;;;;;;;;;478509;245;28315;-82
2023/05/09 01:35:31;;;;;;;12.10;10.33;;;12.50;99.90;;;;;;479309;248;26846;-82
2023/05/09 01:37:32;;;;;;;10.90;9.77;;;12.60;99.90;;;;;;479095;245;28007;-83
2023/05/09 01:39:33;;;;;;;12.77;11.03;;;12.60;99.90;;;;;;479646;248;28097;-83
2023/05/09 01:41:36;;;;;;;11.90;10.60;;;;;;;;;;478819;247;28085;-83
2023/05/09 01:43:51;;;;;;;12.30;10.63;;;12.70;99.90;;;;;;479730;248;26501;-81
2023/05/09 01:45:53;;;;;;;12.57;10.60;;;12.70;99.90;;;;;;478837;246;28253;-83
2023/05/09 01:47:55;;;;;;;11.00;9.70;;;;;;;;;;479832;248;28131;-83
2023/05/09 01:49:56;;;;;;;10.50;9.37;;;12.70;99.90;;;;;;478818;247;26601;-83
2023/05/09 01:51:57;;;;;;;16.43;10.13;;;12.70;99.90;;;;;;479665;248;28621;-83
2023/05/09 01:54:00;;;;;;;11.67;9.60;;;;;;;;;;478836;247;28274;-83
2023/05/09 01:56:01;;;;;;;10.80;9.70;;;12.60;99.90;;;;;;479809;248;26782;-82
2023/05/09 01:58:17;;;;;;;17.13;10.17;;;12.60;99.90;;;;;;478856;247;28144;-83
2023/05/09 02:00:19;;;;;;;21.97;13.70;;;12.60;99.90;;;;;;479711;247;28164;-83
2023/05/09 02:02:20;;;;;;;13.33;11.00;;;12.50;99.90;;;;;;479029;245;28079;-83
2023/05/09 02:04:21;;;;;;;12.67;11.30;;;12.40;99.90;;;;;;479785;248;28343;-82
2023/05/09 02:06:22;;;;;;;20.60;11.80;;;12.50;99.90;;;;;;478807;246;28159;-83
2023/05/09 02:08:24;;;;;;;14.80;12.43;;;12.40;99.90;;;;;;479556;247;27871;-82
2023/05/09 02:10:25;;;;;;;13.73;10.90;;;12.40;99.90;;;;;;478738;245;28207;-82
2023/05/09 02:12:26;;;;;;;13.60;11.90;;;12.40;99.90;;;;;;479340;248;28358;-82
2023/05/09 02:14:29;;;;;;;11.87;10.50;;;;;;;;;;478443;247;28307;-82
2023/05/09 02:16:30;;;;;;;15.00;13.03;;;12.30;99.90;;;;;;479264;248;26884;-83
2023/05/09 02:18:31;;;;;;;18.47;14.80;;;12.40;99.90;;;;;;478426;245;28100;-82
2023/05/09 02:20:34;;;;;;;13.60;11.77;;;12.50;99.90;;;;;;479397;248;27922;-82
2023/05/09 02:22:35;;;;;;;12.47;11.00;;;12.40;99.90;;;;;;478430;247;28707;-83
2023/05/09 02:24:36;;;;;;;14.60;11.50;;;12.40;99.90;;;;;;479378;248;28647;-82
2023/05/09 02:26:37;;;;;;;11.37;10.03;;;12.40;99.90;;;;;;478623;245;28575;-82
2023/05/09 02:28:38;;;;;;;15.27;11.50;;;12.40;99.90;;;;;;479311;247;27982;-81
2023/05/09 02:30:40;;;;;;;12.70;11.33;;;12.40;99.90;;;;;;478572;247;28576;-82
2023/05/09 02:32:41;;;;;;;13.43;12.00;;;12.40;99.90;;;;;;479388;248;28578;-83
2023/05/09 02:34:42;;;;;;;12.57;11.27;;;12.50;99.90;;;;;;478863;246;28072;-83
2023/05/09 02:36:44;;;;;;;12.60;10.90;;;12.50;99.90;;;;;;479698;247;28626;-82
2023/05/09 02:38:45;;;;;;;13.90;11.10;;;12.50;99.90;;;;;;478057;245;28778;-82
2023/05/09 02:40:46;;;;;;;15.83;13.50;;;12.50;99.90;;;;;;476270;250;28464;-83
2023/05/09 02:42:47;;;;;;;14.63;12.70;;;12.50;99.90;;;;;;476151;250;28296;-82
2023/05/09 02:44:49;;;;;;;15.17;11.90;;;12.50;99.90;;;;;;476170;250;28243;-82
2023/05/09 02:46:51;;;;;;;13.13;11.37;;;;;;;;;;476152;250;28217;-82
2023/05/09 02:48:52;;;;;;;13.07;11.20;;;12.60;99.90;;;;;;476164;249;26536;-81
2023/05/09 02:50:53;;;;;;;12.90;11.10;;;12.70;99.90;;;;;;476139;249;28172;-83
2023/05/09 02:53:07;;;;;;;13.20;11.10;;;12.60;99.90;;;;;;476121;250;28737;-82
2023/05/09 02:55:08;;;;;;;12.50;10.20;;;12.60;99.90;;;;;;476095;250;28288;-83
2023/05/09 02:57:09;;;;;;;14.17;11.97;;;12.60;99.90;;;;;;475962;250;29193;-82
2023/05/09 02:59:12;;;;;;;15.40;11.63;;;;;;;;;;475953;250;28729;-82
2023/05/09 03:01:13;;;;;;;15.53;12.50;;;12.60;99.90;;;;;;476065;249;26516;-83
2023/05/09 03:03:16;;;;;;;23.90;12.40;;;12.60;99.90;;;;;;475921;250;28273;-83
2023/05/09 03:05:16;;;;;;;13.47;11.67;;;12.70;99.90;;;;;;475914;250;28228;-82
2023/05/09 03:07:18;;;;;;;14.30;12.73;;;;;;;;;;476020;250;28251;-82
2023/05/09 03:09:19;;;;;;;17.43;13.97;;;12.60;99.90;;;;;;475947;249;26404;-82
2023/05/09 03:11:21;;;;;;;16.87;13.93;;;12.60;99.90;;;;;;475950;250;28118;-83
2023/05/09 03:13:23;;;;;;;16.20;13.47;;;12.50;99.90;;;;;;475961;250;28278;-83
2023/05/09 03:15:24;;;;;;;15.50;12.70;;;12.50;99.90;;;;;;475929;250;28236;-82
2023/05/09 03:17:26;;;;;;;17.23;13.70;;;12.50;99.90;;;;;;475983;250;28118;-82
2023/05/09 03:19:26;;;;;;;19.50;13.47;;;12.50;99.90;;;;;;475920;250;28334;-82
2023/05/09 03:21:28;;;;;;;19.20;14.83;;;12.50;99.90;;;;;;475915;250;28268;-82
2023/05/09 03:23:29;;;;;;;19.80;15.07;;;12.40;99.90;;;;;;475994;250;28091;-82
2023/05/09 03:25:31;;;;;;;16.47;12.63;;;;;;;;;;476028;250;27970;-82
2023/05/09 03:27:33;;;;;;;18.60;14.37;;;12.40;99.90;;;;;;476134;249;27442;-83
2023/05/09 03:29:34;;;;;;;21.33;15.20;;;12.50;99.90;;;;;;476102;250;28249;-83
2023/05/09 03:31:35;;;;;;;21.43;15.67;;;12.50;99.90;;;;;;476234;250;27991;-82
2023/05/09 03:33:36;;;;;;;26.63;16.80;;;12.50;99.90;;;;;;476205;250;28226;-83
2023/05/09 03:35:39;;;;;;;23.80;18.47;;;;;;;;;;476129;250;28375;-83
2023/05/09 03:37:40;;;;;;;24.00;16.80;;;12.50;99.90;;;;;;476205;250;26511;-82
2023/05/09 03:39:41;;;;;;;18.50;14.77;;;12.50;99.90;;;;;;476276;250;28329;-82
2023/05/09 03:41:43;;;;;;;18.50;14.83;;;12.50;99.90;;;;;;476218;250;28459;-83
2023/05/09 03:43:44;;;;;;;19.90;15.63;;;12.50;99.90;;;;;;476278;249;28232;-83
2023/05/09 03:45:45;;;;;;;16.43;13.37;;;12.50;99.90;;;;;;476233;250;28517;-83
2023/05/09 03:47:46;;;;;;;13.47;11.50;;;12.50;99.90;;;;;;476197;250;28813;-83
2023/05/09 03:49:48;;;;;;;14.30;12.00;;;12.50;99.90;;;;;;476143;250;28194;-82
2023/05/09 03:51:50;;;;;;;16.87;13.10;;;;;;;;;;476102;250;27976;-83
2023/05/09 03:53:51;;;;;;;14.27;11.40;;;12.40;99.90;;;;;;476083;249;26547;-82
2023/05/09 03:55:53;;;;;;;14.30;10.80;;;12.40;99.90;;;;;;476048;250;28274;-82
2023/05/09 03:57:54;;;;;;;20.53;13.47;;;12.40;99.90;;;;;;476064;250;28232;-82
2023/05/09 03:59:55;;;;;;;28.73;13.00;;;12.40;99.90;;;;;;476376;250;28337;-82
2023/05/09 04:01:56;;;;;;;23.23;11.60;;;12.40;99.90;;;;;;476351;250;28769;-82
2023/05/09 04:03:58;;;;;;;14.50;12.43;;;12.40;99.90;;;;;;476229;250;28614;-84
2023/05/09 04:06:08;;;;;;;36.50;12.13;;;12.30;99.90;;;;;;476223;250;28295;-83
2023/05/09 04:08:10;;;;;;;14.30;11.30;;;;;;;;;;476172;250;28240;-82
2023/05/09 04:10:12;;;;;;;17.83;10.83;;;12.20;99.90;;;;;;476112;249;27360;-82
2023/05/09 04:12:13;;;;;;;13.17;11.53;;;12.40;99.90;;;;;;476120;250;28325;-81
2023/05/09 04:14:14;;;;;;;20.20;12.83;;;12.40;99.90;;;;;;476203;250;28821;-83
2023/05/09 04:16:15;;;;;;;15.30;12.60;;;12.50;99.90;;;;;;476219;250;28268;-81
2023/05/09 04:18:17;;;;;;;14.40;12.30;;;12.50;99.90;;;;;;476271;250;28339;-81
2023/05/09 04:20:18;;;;;;;12.63;11.17;;;12.50;99.90;;;;;;476278;250;29142;-81
2023/05/09 04:22:19;;;;;;;13.20;11.53;;;12.60;99.90;;;;;;476255;250;27993;-81
2023/05/09 04:24:21;;;;;;;13.37;11.47;;;12.60;99.90;;;;;;476205;250;28689;-80
2023/05/09 04:26:23;;;;;;;15.37;12.23;;;12.70;99.90;;;;;;476233;250;27993;-80
2023/05/09 04:28:24;;;;;;;19.30;13.40;;;12.80;99.90;;;;;;476088;250;28322;-80
2023/05/09 04:30:26;;;;;;;21.03;16.70;;;12.80;99.90;;;;;;476085;250;28199;-81
2023/05/09 04:32:26;;;;;;;23.17;17.23;;;12.90;99.90;;;;;;476149;250;28246;-80
2023/05/09 04:34:29;;;;;;;23.63;17.57;;;12.90;99.90;;;;;;476160;250;28375;-80
2023/05/09 04:36:32;;;;;;;18.60;13.97;;;13.00;99.90;;;;;;476168;250;28538;-81
2023/05/09 04:38:31;;;;;;;23.63;17.60;;;13.10;99.90;;;;;;475935;250;28119;-83
2023/05/09 04:40:33;;;;;;;27.30;18.93;;;13.20;99.90;;;;;;476195;244;28180;-81
2023/05/09 04:42:34;;;;;;;21.50;15.87;;;13.20;99.90;;;;;;476316;250;28199;-80
2023/05/09 04:44:36;;;;;;;36.60;22.73;;;13.30;99.90;;;;;;476292;250;28228;-80
2023/05/09 04:46:37;;;;;;;28.87;18.80;;;13.30;99.90;;;;;;476413;250;28207;-80
2023/05/09 04:48:39;;;;;;;28.70;19.70;;;13.40;99.90;;;;;;476348;250;28351;-81
2023/05/09 04:50:40;;;;;;;26.63;17.77;;;13.40;99.90;;;;;;476210;250;29005;-80
2023/05/09 04:52:41;;;;;;;29.93;20.67;;;13.50;99.90;;;;;;476341;250;28102;-81
2023/05/09 04:54:43;;;;;;;32.40;19.63;;;13.50;99.90;;;;;;476368;250;28189;-80
2023/05/09 04:56:44;;;;;;;30.27;19.60;;;13.60;99.90;;;;;;476364;250;28346;-82
2023/05/09 04:58:45;;;;;;;29.43;20.60;;;13.60;99.90;;;;;;476243;250;28265;-80
2023/05/09 05:01:01;;;;;;;30.83;20.17;;;13.60;99.90;;;;;;476354;250;29066;-82
2023/05/09 05:03:03;;;;;;;35.10;22.43;;;13.70;99.90;;;;;;476307;250;28358;-83
2023/05/09 05:05:05;;;;;;;28.03;19.00;;;13.80;99.90;;;;;;476347;250;28357;-81
2023/05/09 05:07:06;;;;;;;26.43;17.93;;;13.80;99.90;;;;;;476350;250;28295;-81
2023/05/09 05:09:08;;;;;;;27.80;19.83;;;13.80;99.90;;;;;;476264;250;28360;-80
2023/05/09 05:11:09;;;;;;;30.80;20.80;;;13.90;99.90;;;;;;476281;250;29038;-82
2023/05/09 05:13:10;;;;;;;35.77;23.53;;;13.90;99.90;;;;;;476307;250;28452;-79
2023/05/09 05:15:11;;;;;;;30.90;21.60;;;14.00;99.90;;;;;;476208;250;28364;-81
2023/05/09 05:17:13;;;;;;;31.43;21.27;;;14.00;99.90;;;;;;476679;250;28540;-82
2023/05/09 05:19:15;;;;;;;38.90;19.13;;;14.00;99.90;;;;;;476640;250;28648;-81
2023/05/09 05:21:16;;;;;;;27.50;19.37;;;14.00;99.90;;;;;;476552;250;28449;-81
2023/05/09 05:23:18;;;;;;;26.10;18.53;;;14.00;99.90;;;;;;476491;250;28837;-82
2023/05/09 05:25:32;;;;;;;31.17;20.60;;;14.00;99.90;;;;;;476512;250;29452;-81
2023/05/09 05:27:33;;;;;;;28.77;19.60;;;14.10;99.90;;;;;;476451;250;28437;-81
2023/05/09 05:29:35;;;;;;;26.83;18.70;;;14.10;99.90;;;;;;476410;250;28883;-81
2023/05/09 05:31:36;;;;;;;26.40;18.70;;;14.20;99.90;;;;;;476411;250;28592;-81
2023/05/09 05:33:37;;;;;;;24.33;16.57;;;14.20;99.90;;;;;;476432;250;28506;-81
2023/05/09 05:35:39;;;;;;;26.17;18.73;;;14.10;99.90;;;;;;476093;250;28930;-84
2023/05/09 05:37:40;;;;;;;25.50;16.80;;;14.10;99.90;;;;;;477360;249;28853;-82
2023/05/09 05:39:41;;;;;;;24.20;18.73;;;14.10;99.90;;;;;;477518;249;28414;-82
2023/05/09 05:41:42;;;;;;;23.87;17.10;;;14.00;99.90;;;;;;477337;249;29449;-82
2023/05/09 05:48:12;;;;;;;21.63;15.27;;;14.00;99.90;;;;;;473892;246;29399;-82
2023/05/09 05:50:14;;;;;;;20.67;14.50;;;14.00;99.90;;;;;;471929;251;28828;-82
2023/05/09 05:52:25;;;;;;;20.00;15.70;;;14.00;99.90;;;;;;471631;252;28625;-81
2023/05/09 05:54:26;;;;;;;20.97;15.80;;;14.00;99.90;;;;;;471840;252;29321;-80
2023/05/09 05:56:36;;;;;;;19.37;14.63;;;14.00;99.90;;;;;;471915;252;28318;-81
2023/05/09 05:58:37;;;;;;;19.40;14.63;;;14.00;99.90;;;;;;471705;252;28816;-81
2023/05/09 06:00:38;;;;;;;19.60;14.53;;;14.00;99.90;;;;;;471747;252;28358;-80
2023/05/09 06:02:40;;;;;;;19.87;14.93;;;14.10;99.90;;;;;;471800;252;28856;-80
2023/05/09 06:04:52;;;;;;;16.90;12.93;;;14.10;99.90;;;;;;471594;252;28856;-82
2023/05/09 06:06:53;;;;;;;17.03;13.80;;;14.10;99.90;;;;;;481915;230;28557;-83
2023/05/09 06:08:55;;;;;;;16.30;12.80;;;14.20;99.90;;;;;;491594;242;29335;-83
2023/05/09 06:10:56;;;;;;;17.03;13.50;;;14.20;99.90;;;;;;491564;242;29391;-82
2023/05/09 06:12:58;;;;;;;17.00;12.53;;;14.30;99.90;;;;;;492982;237;28882;-82
2023/05/09 06:14:59;;;;;;;16.93;12.83;;;14.40;99.90;;;;;;492897;242;28803;-81
2023/05/09 06:19:17;;;;;;;18.33;13.63;;;14.50;99.90;;;;;;477532;249;28821;-84
2023/05/09 06:21:18;;;;;;;19.37;13.10;;;14.50;99.90;;;;;;478726;248;29418;-85
2023/05/09 06:23:21;;;;;;;15.17;12.07;;;14.50;99.90;;;;;;478750;248;28784;-83
2023/05/09 06:25:21;;;;;;;18.30;13.77;;;14.50;99.90;;;;;;478672;248;28793;-81
2023/05/09 06:27:22;;;;;;;17.80;13.97;;;14.60;99.90;;;;;;486997;227;29202;-85
2023/05/09 06:29:23;;;;;;;15.70;12.83;;;14.60;99.90;;;;;;496390;240;29352;-83
2023/05/09 06:31:25;;;;;;;18.37;13.83;;;14.60;99.90;;;;;;496377;240;28756;-80
2023/05/09 06:33:26;;;;;;;22.30;15.60;;;14.60;99.90;;;;;;496188;240;29341;-80
2023/05/09 06:35:27;;;;;;;19.40;14.07;;;14.70;99.90;;;;;;496253;238;29576;-83
2023/05/09 06:37:28;;;;;;;19.90;15.17;;;14.80;99.90;;;;;;490973;232;28827;-87
2023/05/09 06:39:30;;;;;;;20.80;14.93;;;14.80;99.90;;;;;;485462;238;28816;-85
2023/05/09 06:41:31;;;;;;;22.30;16.33;;;14.90;99.90;;;;;;485502;241;28928;-83
2023/05/09 06:43:32;;;;;;;21.40;16.23;;;15.00;99.90;;;;;;485408;241;28855;-84
2023/05/09 06:45:34;;;;;;;21.73;15.70;;;15.10;99.90;;;;;;485240;241;28440;-82
2023/05/09 06:47:35;;;;;;;18.13;14.50;;;15.20;99.90;;;;;;487981;230;29298;-85
2023/05/09 06:49:36;;;;;;;19.53;14.13;;;15.30;99.90;;;;;;485994;245;28920;-84
2023/05/09 06:51:37;;;;;;;19.80;13.70;;;15.40;99.90;;;;;;486306;245;28971;-85
2023/05/09 06:53:39;;;;;;;15.03;13.37;;;15.40;99.90;;;;;;486101;245;28829;-83
2023/05/09 06:55:40;;;;;;;15.87;12.73;;;15.50;99.90;;;;;;486140;245;28958;-86
2023/05/09 06:57:44;;;;;;;17.53;14.87;;;15.50;99.90;;;;;;484977;231;28848;-86
2023/05/09 06:59:43;;;;;;;17.43;15.00;;;15.60;99.90;;;;;;487141;243;29288;-83
2023/05/09 07:01:44;;;;;;;22.40;15.60;;;15.70;99.90;;;;;;488749;242;29317;-85
2023/05/09 07:03:46;;;;;;;17.60;13.13;;;15.80;99.90;;;;;;488769;242;28773;-84
2023/05/09 07:05:46;;;;;;;14.60;12.97;;;15.80;99.90;;;;;;488531;243;28756;-83
2023/05/09 07:07:47;;;;;;;16.30;13.20;;;16.00;99.90;;;;;;482837;229;28853;-84
2023/05/09 07:09:49;;;;;;;17.53;13.17;;;16.20;99.90;;;;;;475693;250;28874;-84
2023/05/09 07:11:50;;;;;;;17.03;13.90;;;16.40;99.90;;;;;;475715;250;29045;-81
2023/05/09 07:13:51;;;;;;;16.30;13.60;;;16.40;99.90;;;;;;475734;249;29403;-82
2023/05/09 07:15:52;;;;;;;13.93;12.33;;;16.30;99.90;;;;;;475661;250;29373;-84
2023/05/09 07:17:54;;;;;;;12.70;11.33;;;16.50;99.90;;;;;;487403;231;28816;-84
2023/05/09 07:19:55;;;;;;;12.00;10.33;;;16.60;99.90;;;;;;492862;241;28765;-84
2023/05/09 07:21:56;;;;;;;12.70;11.30;;;16.70;99.90;;;;;;492909;241;29261;-83
2023/05/09 07:23:57;;;;;;;16.63;12.43;;;16.80;99.90;;;;;;492885;241;28813;-86
2023/05/09 07:26:00;;;;;;;14.43;10.63;;;17.00;99.90;;;;;;492801;241;29372;-80
2023/05/09 07:28:00;;;;;;;11.73;10.43;;;17.10;99.90;;;;;;481599;231;29279;-83
2023/05/09 07:30:01;;;;;;;11.70;10.33;;;17.30;99.90;;;;;;471578;249;29212;-85
2023/05/09 07:32:03;;;;;;;10.03;9.03;;;17.30;99.90;;;;;;471399;251;28958;-84
2023/05/09 07:34:04;;;;;;;10.33;9.30;;;17.10;99.90;;;;;;471283;251;28962;-84
2023/05/09 07:36:05;;;;;;;11.50;9.80;;;17.00;99.90;;;;;;471220;251;29043;-81
2023/05/09 07:40:29;;;;;;;9.03;8.13;;;17.10;99.90;;;;;;480292;243;29185;-85
2023/05/09 07:42:31;;;;;;;9.07;8.17;;;17.20;99.90;;;;;;469592;246;29319;-84
2023/05/09 07:44:32;;;;;;;7.87;7.07;;;17.20;99.90;;;;;;474491;250;29405;-84
2023/05/09 07:48:33;;;;;;;8.20;7.40;;;17.30;99.90;;;;;;468365;233;28955;-86
2023/05/09 07:50:35;;;;;;;8.00;7.20;;;17.30;99.90;;;;;;467750;251;27942;-85
2023/05/09 07:52:36;;;;;;;10.00;7.80;;;17.40;99.90;;;;;;468056;253;28929;-83
2023/05/09 07:54:37;;;;;;;9.20;7.20;;;17.40;99.90;;;;;;467775;253;28994;-87
2023/05/09 07:58:42;;;;;;;7.57;6.87;;;17.70;99.90;;;;;;506979;231;29238;-83
2023/05/09 08:00:43;;;;;;;6.80;6.20;;;17.80;99.90;;;;;;506666;235;28880;-82
2023/05/09 08:02:47;;;;;;;9.00;6.67;;;18.00;99.90;;;;;;506539;231;28866;-82
2023/05/09 08:04:47;;;;;;;12.37;6.90;;;18.10;99.90;;;;;;504930;231;28697;-83
2023/05/09 08:06:47;;;;;;;18.97;10.80;;;18.10;99.90;;;;;;505581;234;29950;-82
2023/05/09 08:08:48;;;;;;;8.03;6.67;;;18.10;99.90;;;;;;497500;236;29405;-82
2023/05/09 08:10:49;;;;;;;7.20;6.40;;;17.80;99.90;;;;;;497396;237;28838;-82
2023/05/09 08:12:51;;;;;;;14.33;9.00;;;17.90;99.90;;;;;;497461;236;28763;-82
2023/05/09 08:14:52;;;;;;;7.80;7.00;;;17.90;99.90;;;;;;497470;236;29240;-81
2023/05/09 08:16:53;;;;;;;7.50;6.77;;;17.80;99.90;;;;;;497692;236;28760;-83
2023/05/09 08:18:54;;;;;;;7.70;6.90;;;17.70;99.90;;;;;;497536;237;28889;-82
2023/05/09 08:20:57;;;;;;;9.40;6.50;;;17.70;99.90;;;;;;497456;236;28827;-85
2023/05/09 08:22:57;;;;;;;21.73;7.10;;;17.60;99.90;;;;;;497507;238;28772;-82
2023/05/09 08:24:58;;;;;;;9.00;6.60;;;17.60;99.90;;;;;;497365;236;28746;-83
2023/05/09 08:27:00;;;;;;;8.07;7.30;;;17.70;99.90;;;;;;499398;234;29278;-83
2023/05/09 08:29:01;;;;;;;10.70;7.07;;;17.70;99.90;;;;;;497704;236;29260;-82
2023/05/09 08:31:02;;;;;;;8.60;7.67;;;17.70;99.90;;;;;;497296;233;29531;-83
2023/05/09 08:33:03;;;;;;;7.13;6.47;;;17.60;99.90;;;;;;497208;234;28801;-83
2023/05/09 08:35:05;;;;;;;8.17;7.37;;;17.50;99.90;;;;;;497445;233;28806;-83
2023/05/09 08:37:06;;;;;;;8.10;6.93;;;17.50;99.90;;;;;;500341;234;28756;-83
2023/05/09 08:39:08;;;;;;;10.13;8.57;;;17.60;99.90;;;;;;509805;233;28848;-83
2023/05/09 08:41:08;;;;;;;15.07;7.27;;;17.50;99.90;;;;;;509647;232;28779;-83
2023/05/09 08:43:10;;;;;;;8.47;7.67;;;17.40;99.90;;;;;;509698;232;28774;-83
2023/05/09 08:45:11;;;;;;;9.53;7.90;;;17.30;99.90;;;;;;509424;234;28746;-85
2023/05/09 08:47:12;;;;;;;8.40;7.50;;;17.30;99.90;;;;;;509497;232;28743;-83
2023/05/09 08:49:13;;;;;;;9.87;8.77;;;17.40;99.90;;;;;;509481;232;28865;-83
2023/05/09 08:51:16;;;;;;;7.83;7.03;;;17.60;99.90;;;;;;509609;232;28778;-82
2023/05/09 08:53:16;;;;;;;8.87;6.73;;;17.90;99.90;;;;;;509544;232;28884;-83
2023/05/09 08:55:17;;;;;;;8.30;7.50;;;18.10;99.90;;;;;;509664;232;28719;-83
2023/05/09 08:57:18;;;;;;;8.77;6.60;;;18.30;99.90;;;;;;505722;233;28785;-82
2023/05/09 08:59:20;;;;;;;9.50;6.70;;;18.40;99.90;;;;;;500788;231;28860;-82
2023/05/09 09:01:21;;;;;;;8.10;7.30;;;18.40;99.90;;;;;;500905;235;29560;-82
2023/05/09 09:03:22;;;;;;;8.77;7.87;;;18.30;99.90;;;;;;500968;235;29919;-82
2023/05/09 09:05:23;;;;;;;7.53;6.83;;;18.40;99.90;;;;;;500903;235;29641;-82
2023/05/09 09:07:25;;;;;;;9.00;7.03;;;18.60;99.90;;;;;;500835;231;28838;-83
2023/05/09 09:09:26;;;;;;;10.10;7.37;;;18.80;99.90;;;;;;500983;231;28770;-83
2023/05/09 09:11:27;;;;;;;5.90;5.40;;;18.90;99.90;;;;;;501216;235;29222;-82
2023/05/09 09:13:28;;;;;;;5.73;5.23;;;19.20;99.90;;;;;;500865;232;28881;-82
2023/05/09 09:15:30;;;;;;;6.23;5.63;;;19.30;99.90;;;;;;501027;235;28810;-83
2023/05/09 09:17:31;;;;;;;5.77;5.27;;;19.30;99.90;;;;;;500910;231;28795;-83
2023/05/09 09:19:32;;;;;;;6.00;5.40;;;19.10;99.90;;;;;;500931;231;28785;-82
2023/05/09 09:21:33;;;;;;;6.43;5.03;;;18.90;99.90;;;;;;500940;235;28786;-82
2023/05/09 09:23:35;;;;;;;5.37;4.83;;;18.90;99.90;;;;;;501036;232;29436;-83
2023/05/09 09:25:36;;;;;;;4.90;4.50;;;19.00;99.90;;;;;;501015;236;29543;-82
2023/05/09 09:27:37;;;;;;;4.93;4.43;;;19.40;99.90;;;;;;500536;235;38584;-82
2023/05/09 09:29:38;;;;;;;5.60;5.10;;;19.70;99.90;;;;;;501062;231;28885;-82
2023/05/09 09:31:40;;;;;;;5.40;4.47;;;19.80;99.90;;;;;;501042;232;28848;-82
2023/05/09 09:33:41;;;;;;;4.30;3.90;;;19.80;99.90;;;;;;501036;231;29288;-82
2023/05/09 09:35:42;;;;;;;4.50;4.07;;;19.90;99.90;;;;;;500869;235;28750;-82
2023/05/09 09:37:43;;;;;;;7.23;4.67;;;19.70;99.90;;;;;;501156;232;28785;-82
2023/05/09 09:39:45;;;;;;;4.10;3.80;;;19.80;99.90;;;;;;500939;235;28836;-83
2023/05/09 09:41:46;;;;;;;13.90;5.23;;;20.10;99.90;;;;;;501023;235;28773;-82
2023/05/09 09:43:47;;;;;;;5.93;4.50;;;20.20;99.90;;;;;;501070;231;28757;-82
2023/05/09 09:45:49;;;;;;;5.67;4.43;;;20.20;99.90;;;;;;500913;231;29509;-82
2023/05/09 09:47:50;;;;;;;4.03;3.73;;;20.10;99.90;;;;;;498584;233;29462;-83
2023/05/09 09:49:51;;;;;;;3.80;3.40;;;19.90;99.90;;;;;;497150;237;30447;-83
2023/05/09 09:51:52;;;;;;;4.20;3.80;;;19.90;99.90;;;;;;496998;236;28774;-83
2023/05/09 09:53:54;;;;;;;4.40;3.53;;;20.10;99.90;;;;;;497138;236;28826;-83
2023/05/09 09:55:55;;;;;;;5.00;4.10;;;20.10;99.90;;;;;;497123;234;28821;-83
2023/05/09 09:57:56;;;;;;;5.20;4.00;;;20.00;99.90;;;;;;504494;234;28825;-82
2023/05/09 09:59:57;;;;;;;6.27;3.67;;;20.00;99.90;;;;;;508680;232;28748;-83
2023/05/09 10:01:59;;;;;;;4.43;4.13;;;19.90;99.90;;;;;;508525;233;28737;-83
2023/05/09 10:04:00;;;;;;;4.30;3.90;;;19.90;99.90;;;;;;508454;232;28772;-82
2023/05/09 10:06:01;;;;;;;5.90;3.80;;;19.70;99.90;;;;;;508514;232;28689;-82
2023/05/09 10:08:02;;;;;;;3.90;3.57;;;19.40;99.90;;;;;;508673;233;29391;-83
2023/05/09 10:10:05;;;;;;;4.10;3.80;;;19.20;99.90;;;;;;508530;232;29505;-83
2023/05/09 10:12:05;;;;;;;8.10;3.93;;;19.30;99.90;;;;;;508544;233;28629;-82
2023/05/09 10:14:06;;;;;;;5.47;3.87;;;19.50;99.90;;;;;;508458;233;29614;-83
2023/05/09 10:16:07;;;;;;;3.97;3.67;;;19.50;99.90;;;;;;506439;233;29137;-82
2023/05/09 10:18:09;;;;;;;5.00;3.87;;;19.40;99.90;;;;;;499509;237;28733;-82
2023/05/09 10:20:10;;;;;;;4.47;3.90;;;19.20;99.90;;;;;;499699;238;29140;-82
2023/05/09 10:22:11;;;;;;;3.90;3.60;;;19.10;99.90;;;;;;499550;238;29132;-82
2023/05/09 10:24:12;;;;;;;3.80;3.50;;;19.00;99.90;;;;;;479304;238;28858;-83
2023/05/09 10:26:13;;;;;;;4.50;4.03;;;19.10;99.90;;;;;;482400;242;28823;-82
2023/05/09 10:28:15;;;;;;;3.80;3.50;;;19.10;99.90;;;;;;499565;237;28757;-82
2023/05/09 10:30:16;;;;;;;3.63;3.33;;;19.20;99.90;;;;;;499445;238;28843;-83
2023/05/09 10:32:19;;;;;;;4.20;3.40;;;19.10;99.90;;;;;;499650;238;29503;-83
2023/05/09 10:34:19;;;;;;;3.87;3.57;;;19.10;99.90;;;;;;479112;238;29588;-84
2023/05/09 10:36:20;;;;;;;3.77;3.00;;;19.10;99.90;;;;;;482434;242;29497;-83
2023/05/09 10:38:21;;;;;;;6.53;3.83;;;19.00;99.90;;;;;;479651;240;28850;-83
2023/05/09 10:40:22;;;;;;;4.07;3.67;;;19.10;99.90;;;;;;482636;242;28829;-82